Time;durP1;ratioP1;P1;durP2;ratioP2;P2;SDS_P1;SDS_P2;PMS_P1;PMS_P2;Temp;Humidity;BMP_temperature;BMP_pressure;BME280_temperature;BME280_humidity;BME280_pressure;Samples;Min_cycle;Max_cycle;Signal;HPM_P1;HPM_P2
2022/02/27 00:01:57;;;;;;;15.53;8.20;;;;;;;1.94;100.00;100079.47;5034816;28;20037;-57
2022/02/27 00:04:23;;;;;;;15.03;12.10;;;;;;;2.03;100.00;100083.22;5031737;28;20035;-56
2022/02/27 00:06:48;;;;;;;20.37;8.43;;;;;;;1.92;100.00;100081.94;5032462;28;20768;-58
2022/02/27 00:09:14;;;;;;;13.97;7.57;;;;;;;1.85;100.00;100090.09;5031920;28;20036;-59
2022/02/27 00:11:39;;;;;;;14.50;7.07;;;;;;;1.83;100.00;100090.03;5033781;28;20132;-59
2022/02/27 00:14:05;;;;;;;16.50;8.33;;;;;;;1.77;100.00;100087.28;5033390;28;20647;-57
2022/02/27 00:16:30;;;;;;;13.53;7.67;;;;;;;1.70;100.00;100080.22;5033468;28;20041;-56
2022/02/27 00:18:55;;;;;;;13.37;6.50;;;;;;;1.71;100.00;100086.16;5032837;28;20132;-59
2022/02/27 00:21:21;;;;;;;22.70;12.70;;;;;;;1.72;100.00;100077.78;5031152;28;20479;-59
2022/02/27 00:23:46;;;;;;;17.73;9.77;;;;;;;1.79;100.00;100084.78;5033244;28;20041;-57
2022/02/27 00:26:12;;;;;;;14.83;7.70;;;;;;;1.67;100.00;100077.59;5033432;28;20045;-55
2022/02/27 00:28:37;;;;;;;16.03;8.83;;;;;;;1.73;100.00;100082.03;5035117;28;20156;-56
2022/02/27 00:31:03;;;;;;;13.77;8.40;;;;;;;1.67;100.00;100082.66;5034833;28;20040;-58
2022/02/27 00:33:28;;;;;;;20.57;9.03;;;;;;;1.72;100.00;100081.16;5031546;28;20483;-55
2022/02/27 00:35:54;;;;;;;15.00;8.37;;;;;;;1.69;100.00;100081.06;5033507;28;20752;-57
2022/02/27 00:38:19;;;;;;;13.60;8.60;;;;;;;1.76;100.00;100089.72;5032737;28;20056;-58
2022/02/27 00:40:44;;;;;;;28.40;23.90;;;;;;;1.77;100.00;100083.88;5033891;28;20049;-57
2022/02/27 00:43:10;;;;;;;19.60;13.37;;;;;;;1.76;100.00;100093.13;5034115;28;20460;-58
2022/02/27 00:45:35;;;;;;;18.57;9.27;;;;;;;1.84;100.00;100090.88;5029801;28;20077;-59
2022/02/27 00:48:01;;;;;;;16.07;8.63;;;;;;;1.79;100.00;100084.78;5030942;28;20059;-59
2022/02/27 00:50:27;;;;;;;29.93;25.10;;;;;;;1.85;100.00;100079.97;5033526;28;20073;-60
2022/02/27 00:52:52;;;;;;;45.80;39.83;;;;;;;1.83;100.00;100079.91;5034296;28;20107;-56
2022/02/27 00:55:18;;;;;;;23.57;17.37;;;;;;;1.88;100.00;100080.09;5033190;28;20037;-58
2022/02/27 00:57:43;;;;;;;16.90;11.87;;;;;;;1.89;100.00;100069.19;5031856;28;20041;-56
2022/02/27 01:00:10;;;;;;;16.23;9.17;;;;;;;1.89;100.00;100070.84;5031805;28;20037;-57
2022/02/27 01:02:35;;;;;;;28.53;24.30;;;;;;;1.95;100.00;100082.06;5031915;28;20053;-58
2022/02/27 01:05:01;;;;;;;52.97;48.57;;;;;;;2.00;100.00;100082.22;5033219;28;20099;-59
2022/02/27 01:07:27;;;;;;;47.83;43.53;;;;;;;1.92;100.00;100084.47;5032082;28;20151;-57
2022/02/27 01:09:52;;;;;;;21.87;18.33;;;;;;;1.88;100.00;100084.28;5033972;28;20055;-55
2022/02/27 01:12:18;;;;;;;24.53;14.67;;;;;;;2.01;100.00;100083.94;5035416;28;20037;-58
2022/02/27 01:14:43;;;;;;;19.27;11.23;;;;;;;2.06;100.00;100074.88;5038616;28;20095;-58
2022/02/27 01:17:10;;;;;;;19.33;10.30;;;;;;;1.96;100.00;100075.31;5038477;28;20753;-58
2022/02/27 01:19:36;;;;;;;18.53;10.60;;;;;;;1.98;100.00;100071.19;5036332;28;20037;-58
2022/02/27 01:22:02;;;;;;;23.70;18.87;;;;;;;1.96;100.00;100066.06;5035844;28;20047;-58
2022/02/27 01:24:27;;;;;;;18.50;10.10;;;;;;;2.03;100.00;100072.25;5036316;28;20056;-58
2022/02/27 01:26:53;;;;;;;16.97;9.23;;;;;;;2.00;100.00;100072.97;5036582;28;20041;-56
2022/02/27 01:29:18;;;;;;;149.43;97.87;;;;;;;2.03;100.00;100065.53;5038947;28;20044;-56
2022/02/27 01:31:44;;;;;;;163.27;103.10;;;;;;;1.97;100.00;100077.06;5035064;28;20044;-58
2022/02/27 01:34:10;;;;;;;57.40;51.57;;;;;;;1.97;100.00;100079.59;5036363;28;20032;-58
2022/02/27 01:36:36;;;;;;;21.30;10.80;;;;;;;2.01;100.00;100082.28;5035178;28;20102;-58
2022/02/27 01:39:02;;;;;;;26.63;17.40;;;;;;;1.88;100.00;100076.69;5037602;28;20037;-59
2022/02/27 01:41:27;;;;;;;23.97;21.67;;;;;;;1.83;100.00;100086.63;5035606;28;20045;-58
2022/02/27 01:43:53;;;;;;;22.70;16.40;;;;;;;1.83;100.00;100074.84;5038287;28;20516;-58
2022/02/27 01:46:18;;;;;;;19.23;10.27;;;;;;;1.83;100.00;100067.28;5037710;28;20049;-56
2022/02/27 01:48:44;;;;;;;20.90;10.70;;;;;;;1.83;100.00;100082.44;5037818;28;20033;-58
2022/02/27 01:51:10;;;;;;;16.23;9.37;;;;;;;1.85;100.00;100082.50;5036046;28;20083;-59
2022/02/27 01:53:36;;;;;;;19.40;12.07;;;;;;;1.80;100.00;100084.00;5035567;28;20068;-56
2022/02/27 01:56:02;;;;;;;21.60;12.17;;;;;;;1.83;100.00;100079.91;5036477;28;20153;-59
2022/02/27 01:58:29;;;;;;;21.40;12.77;;;;;;;1.81;100.00;100084.06;5034544;28;20037;-58
2022/02/27 02:00:59;;;;;;;16.07;10.13;;;;;;;1.83;100.00;100084.09;5034943;28;20037;-58
2022/02/27 02:03:25;;;;;;;18.07;9.43;;;;;;;1.92;100.00;100081.06;5035818;28;20120;-58
2022/02/27 02:05:51;;;;;;;20.57;9.77;;;;;;;1.87;100.00;100080.06;5036614;28;20045;-58
2022/02/27 02:08:17;;;;;;;20.87;8.83;;;;;;;1.86;100.00;100081.72;5034869;28;20755;-60
2022/02/27 02:10:43;;;;;;;23.47;10.07;;;;;;;1.84;100.00;100080.78;5036246;28;20053;-59
2022/02/27 02:13:09;;;;;;;16.23;10.07;;;;;;;1.78;100.00;100071.28;5036595;28;20041;-56
2022/02/27 02:15:35;;;;;;;21.77;11.83;;;;;;;1.80;100.00;100082.34;5036309;28;20059;-59
2022/02/27 02:18:00;;;;;;;18.67;9.13;;;;;;;1.80;100.00;100082.34;5037381;28;20498;-58
2022/02/27 02:20:26;;;;;;;18.13;9.70;;;;;;;1.72;100.00;100082.84;5036252;28;20064;-55
2022/02/27 02:22:51;;;;;;;16.70;9.87;;;;;;;1.72;100.00;100076.13;5036123;28;20398;-54
2022/02/27 02:25:17;;;;;;;21.33;11.20;;;;;;;1.73;100.00;100085.44;5031354;28;20084;-54
2022/02/27 02:27:43;;;;;;;17.50;10.37;;;;;;;1.69;100.00;100088.66;5035579;28;20034;-56
2022/02/27 02:30:09;;;;;;;17.57;9.60;;;;;;;1.68;100.00;100086.91;5034890;28;20060;-56
2022/02/27 02:32:50;;;;;;;21.03;10.77;;;;;;;1.62;100.00;100094.25;5034035;28;20376;-59
2022/02/27 02:35:17;;;;;;;19.73;10.17;;;;;;;1.56;100.00;100088.09;5036257;28;20041;-60
2022/02/27 02:37:42;;;;;;;17.77;10.97;;;;;;;1.59;100.00;100090.72;5037365;28;20054;-56
2022/02/27 02:40:08;;;;;;;20.77;12.43;;;;;;;1.63;100.00;100095.09;5036364;28;20045;-59
2022/02/27 02:42:41;;;;;;;23.33;12.83;;;;;;;1.58;100.00;100094.06;5035527;28;20053;-59
2022/02/27 02:45:08;;;;;;;23.93;11.97;;;;;;;1.67;100.00;100096.94;5035812;28;20037;-59
2022/02/27 02:47:33;;;;;;;24.30;12.53;;;;;;;1.66;100.00;100100.28;5033623;28;20669;-59
2022/02/27 02:49:59;;;;;;;27.50;12.10;;;;;;;1.68;100.00;100097.03;5034467;28;20041;-56
2022/02/27 02:52:25;;;;;;;23.23;11.83;;;;;;;1.57;100.00;100094.88;5037143;28;20064;-58
2022/02/27 02:54:51;;;;;;;23.17;12.90;;;;;;;1.53;100.00;100096.38;5035669;28;20060;-57
2022/02/27 02:57:16;;;;;;;20.73;11.30;;;;;;;1.51;100.00;100098.00;5035362;28;20041;-56
2022/02/27 02:59:42;;;;;;;22.07;11.67;;;;;;;1.53;100.00;100093.03;5033486;28;20083;-59
2022/02/27 03:02:09;;;;;;;22.33;12.03;;;;;;;1.50;100.00;100090.34;5034050;28;20045;-58
2022/02/27 03:04:35;;;;;;;22.33;12.17;;;;;;;1.49;100.00;100094.53;5036192;28;20048;-56
2022/02/27 03:07:01;;;;;;;22.10;12.10;;;;;;;1.38;100.00;100095.78;5034948;28;20129;-59
2022/02/27 03:09:26;;;;;;;23.13;11.43;;;;;;;1.44;100.00;100097.72;5033741;28;20502;-59
2022/02/27 03:11:52;;;;;;;28.67;13.77;;;;;;;1.42;100.00;100095.09;5032799;28;20470;-63
2022/02/27 03:14:17;;;;;;;27.03;13.93;;;;;;;1.35;100.00;100099.06;5034786;28;20048;-58
2022/02/27 03:16:42;;;;;;;27.03;14.10;;;;;;;1.43;100.00;100101.91;5034009;28;20053;-59
2022/02/27 03:19:08;;;;;;;26.17;13.43;;;;;;;1.46;100.00;100096.09;5035477;28;20155;-56
2022/02/27 03:21:33;;;;;;;25.03;14.40;;;;;;;1.40;100.00;100090.81;5034583;28;20124;-56
2022/02/27 03:23:59;;;;;;;22.80;12.80;;;;;;;1.46;100.00;100101.16;5034092;28;20040;-56
2022/02/27 03:26:24;;;;;;;24.40;13.23;;;;;;;1.45;100.00;100097.75;5032830;28;20043;-55
2022/02/27 03:28:51;;;;;;;28.50;13.53;;;;;;;1.42;100.00;100100.16;5030791;28;20047;-55
2022/02/27 03:31:17;;;;;;;28.57;13.90;;;;;;;1.46;100.00;100096.94;5031194;28;20846;-56
2022/02/27 03:33:42;;;;;;;26.17;14.03;;;;;;;1.43;100.00;100094.31;5033972;28;20434;-56
2022/02/27 03:36:08;;;;;;;27.73;13.70;;;;;;;1.46;100.00;100106.19;5032630;28;20041;-57
2022/02/27 03:38:33;;;;;;;25.37;13.13;;;;;;;1.39;100.00;100102.56;5032495;28;20044;-58
2022/02/27 03:40:59;;;;;;;26.50;13.17;;;;;;;1.43;100.00;100093.44;5033877;28;20044;-56
2022/02/27 03:43:24;;;;;;;26.57;13.53;;;;;;;1.46;100.00;100101.16;5033369;28;20094;-57
2022/02/27 03:45:50;;;;;;;29.50;14.97;;;;;;;1.42;100.00;100097.63;5031821;28;20091;-56
2022/02/27 03:48:15;;;;;;;26.23;14.43;;;;;;;1.42;100.00;100101.81;5033071;28;20838;-58
2022/02/27 03:50:41;;;;;;;28.57;14.60;;;;;;;1.36;100.00;100099.91;5032209;28;20041;-57
2022/02/27 03:53:06;;;;;;;30.00;15.30;;;;;;;1.42;100.00;100105.22;5033861;28;20079;-59
2022/02/27 03:55:31;;;;;;;30.53;14.23;;;;;;;1.40;100.00;100106.81;5033166;28;20112;-60
2022/02/27 03:57:57;;;;;;;23.57;12.63;;;;;;;1.38;100.00;100104.22;5031434;28;20958;-56
2022/02/27 04:00:22;;;;;;;26.37;14.97;;;;;;;1.40;100.00;100096.69;5035619;28;20040;-56
2022/02/27 04:02:48;;;;;;;28.83;14.27;;;;;;;1.41;100.00;100098.44;5033336;28;20041;-58
2022/02/27 04:05:15;;;;;;;28.87;13.77;;;;;;;1.36;100.00;100105.81;5032337;28;20459;-57
2022/02/27 04:07:41;;;;;;;29.90;14.60;;;;;;;1.24;100.00;100099.41;5032173;28;20102;-56
2022/02/27 04:10:06;;;;;;;29.23;14.77;;;;;;;1.23;100.00;100093.47;5031235;28;20049;-57
2022/02/27 04:12:32;;;;;;;31.97;17.83;;;;;;;1.25;100.00;100106.19;5033665;28;20041;-57
2022/02/27 04:14:57;;;;;;;27.80;14.40;;;;;;;1.23;100.00;100103.59;5032827;28;20491;-57
2022/02/27 04:17:23;;;;;;;34.77;14.93;;;;;;;1.31;100.00;100101.41;5031881;28;20042;-58
2022/02/27 04:19:48;;;;;;;26.60;14.47;;;;;;;1.22;100.00;100096.81;5031462;28;20729;-59
2022/02/27 04:22:13;;;;;;;30.43;15.10;;;;;;;1.26;100.00;100095.28;5032174;28;20044;-58
2022/02/27 04:24:39;;;;;;;26.83;15.43;;;;;;;1.20;100.00;100108.50;5032721;28;20119;-58
2022/02/27 04:27:04;;;;;;;26.33;14.13;;;;;;;1.23;100.00;100100.22;5030150;28;20042;-57
2022/02/27 04:29:29;;;;;;;29.00;14.73;;;;;;;1.27;100.00;100102.06;5030717;28;20045;-54
2022/02/27 04:31:55;;;;;;;28.23;15.03;;;;;;;1.32;100.00;100106.50;5031820;28;20867;-55
2022/02/27 04:34:20;;;;;;;26.47;14.73;;;;;;;1.20;100.00;100100.94;5029662;28;20470;-55
2022/02/27 04:36:46;;;;;;;29.00;12.47;;;;;;;1.27;100.00;100109.66;5031846;28;20049;-56
2022/02/27 04:39:11;;;;;;;26.20;14.37;;;;;;;1.23;100.00;100108.63;5032428;28;20045;-56
2022/02/27 04:41:36;;;;;;;29.70;15.90;;;;;;;1.31;100.00;100116.56;5032049;28;20029;-55
2022/02/27 04:44:02;;;;;;;31.00;14.83;;;;;;;1.29;100.00;100116.47;5034924;28;20052;-56
2022/02/27 04:46:27;;;;;;;28.77;14.27;;;;;;;1.22;100.00;100116.16;5033315;28;20090;-55
2022/02/27 04:48:53;;;;;;;29.47;14.87;;;;;;;1.25;100.00;100121.34;5034056;28;20813;-56
2022/02/27 04:51:18;;;;;;;30.10;14.10;;;;;;;1.26;100.00;100126.47;5035305;28;20056;-55
2022/02/27 04:53:45;;;;;;;29.40;15.27;;;;;;;1.21;100.00;100125.41;5035625;28;20853;-53
2022/02/27 04:56:11;;;;;;;30.33;14.70;;;;;;;1.25;100.00;100127.25;5034797;28;20116;-56
2022/02/27 04:58:37;;;;;;;31.13;14.63;;;;;;;1.26;100.00;100120.53;5038416;28;20549;-57
2022/02/27 05:01:02;;;;;;;33.00;15.90;;;;;;;1.28;100.00;100134.09;5035353;28;20578;-55
2022/02/27 05:03:27;;;;;;;31.43;14.57;;;;;;;1.16;100.00;100133.56;5036014;28;20049;-56
2022/02/27 05:05:53;;;;;;;37.50;16.10;;;;;;;1.20;100.00;100135.44;5035598;28;20111;-55
2022/02/27 05:08:18;;;;;;;31.13;16.93;;;;;;;1.19;100.00;100137.09;5034449;28;20037;-54
2022/02/27 05:10:44;;;;;;;26.07;14.80;;;;;;;1.22;100.00;100146.47;5036114;28;20056;-56
2022/02/27 05:13:09;;;;;;;28.87;14.80;;;;;;;1.16;100.00;100136.97;5037583;28;20491;-52
2022/02/27 05:15:35;;;;;;;29.07;14.07;;;;;;;1.21;100.00;100142.22;5037177;28;20084;-56
2022/02/27 05:18:01;;;;;;;28.33;14.33;;;;;;;1.17;100.00;100143.75;5035253;28;20041;-53
2022/02/27 05:20:26;;;;;;;37.70;17.63;;;;;;;1.13;100.00;100149.47;5037813;28;20196;-54
2022/02/27 05:22:52;;;;;;;31.23;16.17;;;;;;;1.10;100.00;100154.41;5035276;28;20037;-56
2022/02/27 05:25:21;;;;;;;33.67;16.20;;;;;;;1.12;100.00;100152.78;5036373;28;20985;-55
2022/02/27 05:27:51;;;;;;;34.60;17.97;;;;;;;1.18;100.00;100162.31;5035195;28;20037;-53
2022/02/27 05:30:18;;;;;;;35.60;17.03;;;;;;;1.12;100.00;100151.91;5038466;28;20037;-55
2022/02/27 05:32:45;;;;;;;37.33;19.17;;;;;;;1.17;100.00;100165.63;5039903;28;20033;-56
2022/02/27 05:35:10;;;;;;;36.50;20.77;;;;;;;1.21;100.00;100164.94;5037112;28;20037;-55
2022/02/27 05:37:36;;;;;;;38.37;18.33;;;;;;;1.23;100.00;100161.66;5034762;28;20045;-54
2022/02/27 05:40:01;;;;;;;32.23;15.37;;;;;;;1.28;100.00;100174.50;5038496;28;20080;-56
2022/02/27 05:42:27;;;;;;;32.77;15.60;;;;;;;1.32;100.00;100166.25;5037711;28;20049;-56
2022/02/27 05:44:52;;;;;;;30.27;16.33;;;;;;;1.32;100.00;100173.84;5035382;28;21005;-54
2022/02/27 05:47:17;;;;;;;31.63;16.50;;;;;;;1.32;100.00;100163.72;5033424;28;20033;-56
2022/02/27 05:49:43;;;;;;;34.17;18.17;;;;;;;1.27;100.00;100181.22;5034628;28;20065;-55
2022/02/27 05:52:09;;;;;;;37.67;17.83;;;;;;;1.17;100.00;100179.13;5034189;28;20083;-56
2022/02/27 05:54:59;;;;;;;28.83;16.63;;;;;;;1.19;100.00;100185.06;5036460;28;20040;-56
2022/02/27 05:57:25;;;;;;;32.43;16.67;;;;;;;1.22;100.00;100181.84;5035777;28;20052;-54
2022/02/27 05:59:50;;;;;;;45.53;20.80;;;;;;;1.12;100.00;100172.13;5032752;28;20060;-56
2022/02/27 06:02:16;;;;;;;35.50;19.67;;;;;;;1.15;100.00;100179.81;5037195;28;20044;-55
2022/02/27 06:04:41;;;;;;;39.73;17.43;;;;;;;1.21;100.00;100177.56;5036996;28;20491;-52
2022/02/27 06:07:06;;;;;;;36.53;17.13;;;;;;;1.31;100.00;100182.22;5033653;28;20441;-55
2022/02/27 06:09:32;;;;;;;37.03;19.83;;;;;;;1.20;100.00;100180.88;5033217;28;20033;-55
2022/02/27 06:11:57;;;;;;;33.70;16.10;;;;;;;1.16;100.00;100184.09;5031608;28;20568;-54
2022/02/27 06:14:23;;;;;;;32.83;17.43;;;;;;;1.11;100.00;100183.00;5033983;28;20044;-54
2022/02/27 06:16:49;;;;;;;35.07;18.20;;;;;;;1.06;100.00;100184.50;5036164;28;20068;-55
2022/02/27 06:19:14;;;;;;;34.63;17.93;;;;;;;1.08;100.00;100172.78;5033356;28;20100;-56
2022/02/27 06:21:39;;;;;;;41.87;19.07;;;;;;;1.16;100.00;100184.09;5035334;28;20439;-56
2022/02/27 06:24:05;;;;;;;32.93;16.97;;;;;;;1.15;100.00;100179.81;5031922;28;20044;-57
2022/02/27 06:26:32;;;;;;;33.17;17.33;;;;;;;1.22;100.00;100184.38;5032722;28;20045;-57
2022/02/27 06:28:58;;;;;;;36.30;17.87;;;;;;;1.21;100.00;100180.97;5034507;28;20097;-54
2022/02/27 06:31:23;;;;;;;42.40;20.40;;;;;;;1.18;100.00;100183.38;5033549;28;20084;-57
2022/02/27 06:33:49;;;;;;;41.23;17.87;;;;;;;1.14;100.00;100183.16;5036257;28;20744;-55
2022/02/27 06:36:14;;;;;;;37.50;17.67;;;;;;;1.28;100.00;100192.19;5036721;28;20442;-55
2022/02/27 06:38:40;;;;;;;39.53;17.60;;;;;;;1.29;100.00;100183.81;5033572;28;20036;-54
2022/02/27 06:41:06;;;;;;;32.87;16.27;;;;;;;1.24;100.00;100187.81;5035969;28;20037;-55
2022/02/27 06:43:32;;;;;;;30.97;15.50;;;;;;;1.28;100.00;100197.22;5035847;28;20140;-53
2022/02/27 06:46:01;;;;;;;29.67;16.30;;;;;;;1.33;100.00;100191.59;5033106;28;20043;-52
2022/02/27 06:48:27;;;;;;;36.70;16.63;;;;;;;1.25;100.00;100197.13;5034660;28;20145;-56
2022/02/27 06:50:52;;;;;;;42.67;18.13;;;;;;;1.28;100.00;100190.53;5034870;28;20479;-53
2022/02/27 06:53:18;;;;;;;33.03;17.03;;;;;;;1.40;100.00;100196.91;5033446;28;20050;-55
2022/02/27 06:55:43;;;;;;;37.77;17.40;;;;;;;1.39;100.00;100191.00;5037033;28;20045;-57
2022/02/27 06:58:09;;;;;;;28.23;16.07;;;;;;;1.40;100.00;100200.28;5034536;28;20483;-56
2022/02/27 07:00:34;;;;;;;38.33;17.80;;;;;;;1.44;100.00;100208.88;5034958;28;20068;-56
2022/02/27 07:02:59;;;;;;;34.00;16.60;;;;;;;1.46;100.00;100210.66;5038443;28;20094;-53
2022/02/27 07:05:25;;;;;;;31.90;16.10;;;;;;;1.42;100.00;100213.84;5031175;28;20404;-56
2022/02/27 07:07:50;;;;;;;36.63;17.07;;;;;;;1.55;100.00;100217.75;5033724;28;20041;-54
2022/02/27 07:10:16;;;;;;;36.27;16.80;;;;;;;1.66;100.00;100207.28;5032209;28;20173;-57
2022/02/27 07:12:44;;;;;;;32.13;16.23;;;;;;;1.80;100.00;100211.28;5034065;28;20033;-56
2022/02/27 07:15:10;;;;;;;31.27;15.30;;;;;;;1.79;100.00;100211.19;5033618;28;20041;-55
2022/02/27 07:17:35;;;;;;;37.40;17.00;;;;;;;1.69;100.00;100212.50;5031430;28;20048;-56
2022/02/27 07:20:01;;;;;;;39.30;16.70;;;;;;;1.69;100.00;100207.44;5033685;28;20055;-53
2022/02/27 07:22:26;;;;;;;34.30;16.70;;;;;;;1.70;100.00;100215.88;5033396;28;20051;-56
2022/02/27 07:24:51;;;;;;;35.97;16.77;;;;;;;1.75;100.00;100212.72;5032993;28;20045;-56
2022/02/27 07:27:17;;;;;;;33.27;15.50;;;;;;;1.71;100.00;100210.00;5034233;28;20193;-54
2022/02/27 07:29:42;;;;;;;33.30;17.33;;;;;;;1.75;100.00;100210.22;5034238;28;20045;-55
2022/02/27 07:32:11;;;;;;;35.93;16.70;;;;;;;1.82;100.00;100209.66;5033799;28;20041;-52
2022/02/27 07:34:39;;;;;;;37.33;17.97;;;;;;;1.93;100.00;100212.63;5032798;28;20052;-53
2022/02/27 07:37:05;;;;;;;26.30;14.17;;;;;;;1.87;100.00;100224.19;5032069;28;20048;-56
2022/02/27 07:39:30;;;;;;;32.93;16.97;;;;;;;1.78;100.00;100217.06;5032742;28;20038;-56
2022/02/27 07:41:56;;;;;;;36.10;16.87;;;;;;;2.02;100.00;100223.13;5033920;28;20060;-53
2022/02/27 07:44:21;;;;;;;33.07;15.97;;;;;;;1.97;100.00;100218.66;5033463;28;20903;-55
2022/02/27 07:46:48;;;;;;;35.33;16.67;;;;;;;2.17;100.00;100223.72;5032613;28;20045;-55
2022/02/27 07:49:14;;;;;;;29.33;15.13;;;;;;;2.33;100.00;100220.16;5032275;28;20091;-56
2022/02/27 07:51:40;;;;;;;28.33;15.27;;;;;;;2.61;100.00;100225.47;5031996;28;20041;-54
2022/02/27 07:54:05;;;;;;;29.53;13.77;;;;;;;2.64;100.00;100222.16;5031002;28;20518;-57
2022/02/27 07:56:31;;;;;;;29.63;16.83;;;;;;;2.84;100.00;100233.06;5036258;28;20068;-53
2022/02/27 07:58:57;;;;;;;28.27;13.70;;;;;;;2.98;100.00;100229.34;5035387;28;20041;-56
2022/02/27 08:01:23;;;;;;;29.00;14.50;;;;;;;3.02;100.00;100236.25;5032625;28;20498;-57
2022/02/27 08:03:48;;;;;;;28.67;18.40;;;;;;;3.05;100.00;100236.41;5031742;28;20152;-57
2022/02/27 08:06:14;;;;;;;29.37;20.70;;;;;;;3.14;100.00;100226.59;5032685;28;20038;-57
2022/02/27 08:08:39;;;;;;;45.97;41.20;;;;;;;3.36;100.00;100235.81;5033573;28;20029;-57
2022/02/27 08:11:10;;;;;;;61.97;56.27;;;;;;;3.51;100.00;100239.75;5033218;28;20083;-57
2022/02/27 08:13:35;;;;;;;39.40;35.40;;;;;;;3.37;100.00;100233.34;5034303;28;20056;-58
2022/02/27 08:16:00;;;;;;;54.83;49.90;;;;;;;3.39;100.00;100229.19;5032812;28;20098;-57
2022/02/27 08:18:28;;;;;;;51.10;45.80;;;;;;;3.44;100.00;100235.25;5031564;28;20029;-57
2022/02/27 08:20:54;;;;;;;25.23;15.87;;;;;;;3.50;100.00;100232.94;5031388;28;20476;-58
2022/02/27 08:23:20;;;;;;;36.07;32.40;;;;;;;3.36;100.00;100234.13;5031729;28;20048;-58
2022/02/27 08:25:45;;;;;;;27.93;17.23;;;;;;;3.22;100.00;100242.94;5026138;28;20054;-59
2022/02/27 08:28:11;;;;;;;46.70;42.00;;;;;;;2.99;100.00;100238.69;5032243;28;20096;-58
2022/02/27 08:30:36;;;;;;;36.93;29.07;;;;;;;3.07;100.00;100222.97;5031057;28;20037;-59
2022/02/27 08:33:02;;;;;;;49.93;44.87;;;;;;;3.17;100.00;100227.56;5031045;28;20041;-58
2022/02/27 08:35:27;;;;;;;34.77;31.30;;;;;;;3.27;100.00;100223.66;5032725;28;20869;-57
2022/02/27 08:37:53;;;;;;;40.47;34.20;;;;;;;3.29;100.00;100214.47;5031368;28;20037;-58
2022/02/27 08:40:19;;;;;;;35.37;28.70;;;;;;;3.39;100.00;100224.13;5034109;28;20033;-57
2022/02/27 08:42:44;;;;;;;51.10;46.77;;;;;;;3.74;100.00;100207.56;5037074;28;20127;-57
2022/02/27 08:45:10;;;;;;;62.03;56.73;;;;;;;3.96;100.00;100215.06;5031039;28;20079;-58
2022/02/27 08:47:36;;;;;;;92.07;83.83;;;;;;;4.02;100.00;100217.81;5031466;28;20037;-56
2022/02/27 08:50:01;;;;;;;77.10;70.50;;;;;;;3.95;100.00;100212.47;5028779;28;20083;-57
2022/02/27 08:52:27;;;;;;;70.83;64.67;;;;;;;3.98;98.82;100204.97;5030776;28;20120;-57
2022/02/27 08:54:52;;;;;;;41.60;38.00;;;;;;;4.04;98.46;100213.63;5029065;28;20045;-57
2022/02/27 08:57:18;;;;;;;30.53;25.90;;;;;;;4.18;97.43;100214.09;5028987;28;20037;-58
2022/02/27 08:59:43;;;;;;;58.17;53.13;;;;;;;4.28;94.85;100208.50;5029553;28;20037;-56
2022/02/27 09:02:08;;;;;;;28.67;20.43;;;;;;;4.39;93.42;100212.22;5031479;28;20041;-59
2022/02/27 09:04:34;;;;;;;24.07;14.87;;;;;;;4.52;92.13;100209.25;5029997;28;20037;-56
2022/02/27 09:06:59;;;;;;;26.03;12.90;;;;;;;4.41;93.29;100197.88;5030994;28;20047;-57
2022/02/27 09:09:25;;;;;;;23.53;12.97;;;;;;;4.58;93.36;100206.88;5033230;28;20531;-57
2022/02/27 09:11:52;;;;;;;22.03;13.00;;;;;;;4.70;94.03;100208.06;5032921;28;20049;-58
2022/02/27 09:14:17;;;;;;;29.50;14.23;;;;;;;4.77;92.25;100212.50;5033024;28;20516;-57
2022/02/27 09:16:43;;;;;;;20.33;10.53;;;;;;;4.98;90.82;100205.50;5034759;28;20077;-58
2022/02/27 09:19:08;;;;;;;21.57;12.70;;;;;;;5.13;87.69;100205.09;5035214;28;20393;-57
2022/02/27 09:21:33;;;;;;;25.03;13.63;;;;;;;5.03;88.35;100203.97;5030355;28;20120;-56
2022/02/27 09:23:59;;;;;;;24.30;12.73;;;;;;;4.99;87.19;100205.56;5032834;28;20425;-57
2022/02/27 09:26:24;;;;;;;21.27;10.27;;;;;;;5.17;81.76;100199.28;5032221;28;20052;-57
2022/02/27 09:28:51;;;;;;;20.90;11.10;;;;;;;5.29;79.66;100190.28;5032460;28;20041;-58
2022/02/27 09:31:16;;;;;;;21.77;11.67;;;;;;;5.31;80.22;100191.19;5032226;28;20855;-57
2022/02/27 09:33:42;;;;;;;24.13;11.77;;;;;;;5.57;77.83;100193.56;5033367;28;20033;-56
2022/02/27 09:36:10;;;;;;;19.33;13.03;;;;;;;5.67;76.27;100188.75;5033094;28;20037;-59
2022/02/27 09:38:36;;;;;;;24.13;12.07;;;;;;;5.31;76.99;100192.84;5034639;28;20882;-58
2022/02/27 09:41:02;;;;;;;19.50;11.13;;;;;;;4.88;80.23;100193.38;5034893;28;20038;-58
2022/02/27 09:43:28;;;;;;;19.13;11.67;;;;;;;4.95;82.10;100188.50;5035551;28;20403;-58
2022/02/27 09:45:54;;;;;;;26.83;13.20;;;;;;;4.99;82.16;100192.84;5036119;28;20399;-55
2022/02/27 09:48:19;;;;;;;19.33;11.53;;;;;;;5.17;83.07;100189.97;5032132;28;20051;-56
2022/02/27 09:50:48;;;;;;;23.80;12.77;;;;;;;5.49;80.38;100185.72;5032324;28;20028;-59
2022/02/27 09:53:14;;;;;;;22.33;13.27;;;;;;;5.82;76.55;100194.22;5034433;28;20068;-57
2022/02/27 09:55:40;;;;;;;22.50;12.57;;;;;;;6.04;72.23;100193.09;5031459;28;20171;-57
2022/02/27 09:58:06;;;;;;;20.77;11.07;;;;;;;6.05;74.00;100188.88;5031039;28;20522;-60
2022/02/27 10:00:32;;;;;;;21.53;13.10;;;;;;;5.85;73.89;100189.22;5030905;28;20041;-59
2022/02/27 10:03:09;;;;;;;22.00;11.70;;;;;;;6.09;71.22;100183.88;5030283;28;20125;-59
2022/02/27 10:05:37;;;;;;;25.63;11.43;;;;;;;5.87;69.66;100184.19;5031315;28;20044;-58
2022/02/27 10:08:04;;;;;;;16.97;10.23;;;;;;;6.05;70.06;100178.69;5031414;28;20038;-58
2022/02/27 10:10:30;;;;;;;21.10;11.87;;;;;;;6.11;63.85;100184.78;5033850;28;20065;-59
2022/02/27 10:12:56;;;;;;;20.93;11.63;;;;;;;6.12;64.79;100181.41;5033084;28;20103;-58
2022/02/27 10:15:23;;;;;;;18.10;10.63;;;;;;;6.29;65.82;100182.66;5030086;28;20073;-58
2022/02/27 10:17:51;;;;;;;17.40;10.30;;;;;;;6.31;67.03;100185.25;5034042;28;20049;-58
2022/02/27 10:20:20;;;;;;;18.97;11.13;;;;;;;6.40;66.40;100177.81;5030823;28;20558;-58
2022/02/27 10:22:52;;;;;;;19.03;11.57;;;;;;;6.35;66.42;100174.31;5031428;28;20100;-58
2022/02/27 10:25:26;;;;;;;21.77;12.53;;;;;;;6.19;66.84;100173.09;5030687;28;20117;-59
2022/02/27 10:28:04;;;;;;;19.97;10.83;;;;;;;6.18;67.66;100179.00;5031263;28;20487;-59
2022/02/27 10:30:32;;;;;;;20.43;10.77;;;;;;;6.27;66.70;100176.69;5029869;28;20037;-59
2022/02/27 10:32:59;;;;;;;18.47;10.40;;;;;;;6.03;66.58;100172.69;5030309;28;20038;-58
2022/02/27 10:35:41;;;;;;;17.20;9.83;;;;;;;5.97;66.72;100173.41;5031895;28;20069;-55
2022/02/27 10:38:13;;;;;;;17.27;10.23;;;;;;;5.91;65.98;100175.81;5033992;28;20045;-56
2022/02/27 10:40:44;;;;;;;19.00;10.67;;;;;;;5.80;67.31;100162.78;5030810;28;20146;-57
2022/02/27 10:43:11;;;;;;;20.53;11.33;;;;;;;5.91;67.68;100165.63;5031163;28;20047;-59
2022/02/27 10:45:37;;;;;;;13.90;9.13;;;;;;;6.10;66.63;100162.69;5029173;28;20140;-59
2022/02/27 10:48:15;;;;;;;18.57;10.60;;;;;;;6.37;64.03;100153.13;5030444;28;20033;-59
2022/02/27 10:50:45;;;;;;;17.77;10.67;;;;;;;6.52;62.94;100154.31;5028233;28;20068;-59
2022/02/27 10:53:15;;;;;;;19.33;10.33;;;;;;;6.30;61.88;100153.81;5030272;28;20037;-57
2022/02/27 10:55:40;;;;;;;17.63;11.50;;;;;;;6.37;61.68;100152.25;5028455;28;20474;-57
2022/02/27 10:58:06;;;;;;;18.50;10.60;;;;;;;6.25;63.40;100147.75;5030083;28;20037;-58
2022/02/27 11:00:31;;;;;;;23.23;12.30;;;;;;;6.62;63.07;100143.50;5028624;28;20041;-58
2022/02/27 11:03:06;;;;;;;16.63;9.57;;;;;;;6.43;63.20;100135.44;5031470;28;20551;-60
2022/02/27 11:05:40;;;;;;;17.73;9.88;;;;;;;6.50;61.65;100138.97;5029644;28;20928;-57
2022/02/27 11:08:08;;;;;;;19.97;9.97;;;;;;;6.49;60.09;100131.31;5030975;28;20102;-59